Time;durP1;ratioP1;P1;durP2;ratioP2;P2;SDS_P1;SDS_P2;PMS_P1;PMS_P2;Temp;Humidity;BMP_temperature;BMP_pressure;BME280_temperature;BME280_humidity;BME280_pressure;Samples;Min_cycle;Max_cycle;Signal;HPM_P1;HPM_P2
2021/01/12 00:03:51;;;;;;;31.60;14.55;;;;;;;-1.03;100.00;99971.50;10899559;80;21482;-76
2021/01/12 00:18:53;;;;;;;39.95;15.05;;;;;;;-1.05;100.00;99947.54;11006420;80;21092;-76
2021/01/12 00:33:57;;;;;;;35.83;16.10;;;;;;;-0.99;100.00;99932.28;11107690;80;21044;-76
2021/01/12 00:49:02;;;;;;;52.10;20.20;;;;;;;-0.95;100.00;99905.48;11026427;80;21474;-76
2021/01/12 01:04:07;;;;;;;41.95;18.60;;;;;;;-1.08;100.00;99873.45;10645804;83;21122;-76
2021/01/12 01:19:12;;;;;;;30.60;14.23;;;;;;;-1.15;100.00;99876.77;10952755;80;21088;-76
2021/01/12 01:34:15;;;;;;;28.60;14.43;;;;;;;-1.03;100.00;99853.48;10956356;80;20985;-76
2021/01/12 01:49:20;;;;;;;37.73;15.75;;;;;;;-1.02;100.00;99819.95;10945185;80;21597;-74
2021/01/12 02:04:29;;;;;;;35.25;16.42;;;;;;;-1.09;100.00;99777.83;10945804;80;21124;-74
2021/01/12 02:19:34;;;;;;;31.75;15.00;;;;;;;-1.19;100.00;99756.39;10967534;80;21123;-74
2021/01/12 02:34:39;;;;;;;39.67;16.07;;;;;;;-1.23;100.00;99725.70;10949764;80;21060;-77
2021/01/12 02:49:44;;;;;;;38.77;18.73;;;;;;;-1.20;100.00;99689.08;10968707;80;21238;-74
2021/01/12 03:04:48;;;;;;;46.45;17.98;;;;;;;-1.26;100.00;99666.20;11009219;80;21044;-74
2021/01/12 03:19:52;;;;;;;40.45;16.77;;;;;;;-1.12;100.00;99647.52;11028220;80;21439;-74
2021/01/12 03:34:57;;;;;;;45.48;20.17;;;;;;;-1.00;100.00;99616.45;11022233;80;22122;-75
2021/01/12 03:50:01;;;;;;;49.75;19.75;;;;;;;-0.92;100.00;99600.15;10998867;80;21475;-75
2021/01/12 04:05:09;;;;;;;37.98;17.82;;;;;;;-0.85;100.00;99558.98;11027776;80;21016;-75
2021/01/12 04:20:18;;;;;;;49.63;20.48;;;;;;;-0.74;100.00;99540.86;10961352;79;21064;-74
2021/01/12 04:35:22;;;;;;;50.80;21.55;;;;;;;-0.74;100.00;99506.08;10947829;80;21471;-74
2021/01/12 04:50:26;;;;;;;48.17;22.32;;;;;;;-0.80;100.00;99481.49;10944319;80;21455;-73
2021/01/12 05:05:31;;;;;;;52.62;23.32;;;;;;;-0.90;100.00;99459.72;10957506;80;21057;-73
2021/01/12 05:20:42;;;;;;;35.57;15.63;;;;;;;-0.85;100.00;99437.94;10913340;80;21103;-75
2021/01/12 05:35:48;;;;;;;47.75;22.90;;;;;;;-0.72;100.00;99401.23;10899343;80;21163;-74
2021/01/12 05:50:57;;;;;;;50.63;21.05;;;;;;;-0.70;100.00;99413.11;10909559;80;21068;-73
2021/01/12 06:06:02;;;;;;;54.13;23.18;;;;;;;-0.68;100.00;99381.64;10906200;80;21155;-76
2021/01/12 06:21:18;;;;;;;69.35;36.58;;;;;;;-0.81;100.00;99356.20;10908391;80;21119;-76
2021/01/12 06:36:26;;;;;;;50.00;22.87;;;;;;;-0.68;100.00;99337.02;10912733;80;21562;-76
2021/01/12 06:51:37;;;;;;;54.38;29.15;;;;;;;-0.80;100.00;99318.41;10451822;84;21499;-76
2021/01/12 07:06:41;;;;;;;64.07;29.12;;;;;;;-0.98;100.00;99319.79;10912563;80;21089;-76
2021/01/12 07:21:47;;;;;;;51.18;21.55;;;;;;;-0.95;100.00;99314.48;10934265;80;21988;-76
2021/01/12 07:36:53;;;;;;;56.63;29.47;;;;;;;-0.91;100.00;99294.09;10937112;80;21029;-76
2021/01/12 07:51:58;;;;;;;60.07;27.70;;;;;;;-0.77;100.00;99274.44;10927981;80;21017;-75
2021/01/12 08:07:02;;;;;;;46.42;20.65;;;;;;;-0.65;100.00;99266.00;10953505;80;21084;-75
2021/01/12 08:22:09;;;;;;;54.38;22.75;;;;;;;-0.60;100.00;99262.70;10974155;79;21649;-76
2021/01/12 08:37:16;;;;;;;44.33;22.30;;;;;;;-0.41;100.00;99242.29;10969369;80;21017;-75
2021/01/12 08:52:21;;;;;;;39.78;17.50;;;;;;;-0.08;100.00;99237.33;10955114;80;21132;-76
2021/01/12 09:07:26;;;;;;;43.17;19.37;;;;;;;0.20;100.00;99224.88;10937355;80;20989;-77
2021/01/12 09:22:31;;;;;;;37.85;18.50;;;;;;;0.05;100.00;99219.36;10929878;80;21075;-77
2021/01/12 09:37:35;;;;;;;51.58;23.05;;;;;;;-0.12;100.00;99194.61;10938654;80;21013;-77
2021/01/12 09:52:39;;;;;;;62.65;34.30;;;;;;;-0.06;100.00;99199.40;10954456;80;21182;-78
2021/01/12 10:07:44;;;;;;;44.42;22.22;;;;;;;-0.13;100.00;99178.32;10969537;80;21040;-75
2021/01/12 10:22:48;;;;;;;53.65;23.38;;;;;;;-0.09;100.00;99159.16;10941267;80;21061;-76
2021/01/12 10:37:53;;;;;;;40.67;20.30;;;;;;;-0.14;100.00;99151.35;10502218;84;21139;-76
2021/01/12 10:52:57;;;;;;;41.50;20.02;;;;;;;-0.19;100.00;99134.39;10772586;82;21107;-76
2021/01/12 11:08:05;;;;;;;40.03;19.70;;;;;;;-0.15;100.00;99109.25;10785196;82;21024;-77
2021/01/12 11:23:09;;;;;;;41.10;20.72;;;;;;;-0.13;100.00;99099.69;10823195;82;21019;-75
2021/01/12 11:38:13;;;;;;;44.53;19.48;;;;;;;-0.25;100.00;99092.25;10800118;82;21135;-75
2021/01/12 11:53:17;;;;;;;47.13;22.98;;;;;;;-0.05;100.00;99055.37;10800402;80;21099;-74
2021/01/12 12:08:22;;;;;;;46.20;22.93;;;;;;;-0.11;100.00;99040.28;10833563;80;21053;-76
2021/01/12 12:23:26;;;;;;;39.88;19.05;;;;;;;-0.05;100.00;99021.86;10861763;80;20993;-77
2021/01/12 12:38:30;;;;;;;46.45;23.10;;;;;;;-0.15;100.00;99007.89;10822640;80;21498;-77
2021/01/12 12:53:36;;;;;;;40.20;21.65;;;;;;;-0.10;100.00;98983.94;10834564;80;21008;-77
2021/01/12 13:08:42;;;;;;;40.87;18.00;;;;;;;-0.09;100.00;98981.70;10840150;80;21558;-77
2021/01/12 13:23:48;;;;;;;51.90;25.60;;;;;;;-0.10;100.00;98974.91;10872275;80;21013;-76
2021/01/12 13:38:53;;;;;;;53.90;27.87;;;;;;;0.01;100.00;98967.28;10864671;81;21052;-78
2021/01/12 13:53:58;;;;;;;63.92;33.53;;;;;;;-0.07;100.00;98955.36;10848369;81;21028;-75
2021/01/12 14:09:04;;;;;;;116.47;48.17;;;;;;;-0.08;100.00;98949.84;10870684;80;21570;-76
2021/01/12 14:24:11;;;;;;;65.92;31.37;;;;;;;-0.19;100.00;98935.89;10873543;80;21049;-75
2021/01/12 14:39:26;;;;;;;105.15;38.40;;;;;;;-0.13;100.00;98932.55;10855403;80;21052;-75
2021/01/12 14:54:30;;;;;;;94.97;38.48;;;;;;;-0.15;100.00;98924.11;10865801;80;21020;-75
2021/01/12 15:09:35;;;;;;;52.95;26.45;;;;;;;-0.14;100.00;98933.50;10821200;80;21403;-77
2021/01/12 15:24:39;;;;;;;55.12;27.60;;;;;;;-0.17;100.00;98913.91;10841508;81;21287;-75
2021/01/12 15:39:43;;;;;;;46.15;21.82;;;;;;;-0.21;100.00;98897.80;10854917;80;21096;-79
2021/01/12 15:54:48;;;;;;;45.15;23.25;;;;;;;-0.21;100.00;98896.52;10837468;80;21016;-76
2021/01/12 16:09:54;;;;;;;67.53;36.48;;;;;;;-0.18;100.00;98876.16;10829743;80;21100;-76
2021/01/12 16:25:00;;;;;;;47.62;23.92;;;;;;;-0.20;100.00;98869.81;10829878;80;21048;-77
2021/01/12 16:40:08;;;;;;;47.83;24.57;;;;;;;-0.12;100.00;98856.87;10840636;80;21096;-75
2021/01/12 16:55:14;;;;;;;57.80;32.75;;;;;;;-0.06;100.00;98843.58;10845494;80;21052;-77
2021/01/12 17:10:21;;;;;;;59.50;27.33;;;;;;;-0.06;100.00;98836.66;10814689;80;21139;-77
2021/01/12 17:25:26;;;;;;;77.95;37.80;;;;;;;0.03;100.00;98821.04;10870762;80;20997;-77
2021/01/12 17:40:32;;;;;;;63.25;36.95;;;;;;;0.07;100.00;98815.22;10854173;80;21507;-75
2021/01/12 17:55:39;;;;;;;54.53;28.03;;;;;;;0.12;100.00;98816.55;10841903;80;21080;-77
2021/01/12 18:10:47;;;;;;;57.15;30.45;;;;;;;0.16;100.00;98823.62;10851309;80;21096;-76
2021/01/12 18:25:54;;;;;;;44.70;23.62;;;;;;;0.19;100.00;98822.58;10844711;80;21511;-76
2021/01/12 18:41:00;;;;;;;48.00;23.23;;;;;;;0.23;100.00;98807.25;10845159;80;21037;-77
2021/01/12 18:56:12;;;;;;;42.27;21.87;;;;;;;0.23;100.00;98807.25;10847599;80;21040;-75
2021/01/12 19:11:17;;;;;;;48.90;25.65;;;;;;;0.21;100.00;98809.10;10794673;80;21022;-77
2021/01/12 19:26:26;;;;;;;45.63;23.35;;;;;;;0.24;100.00;98805.85;10509628;82;21045;-77
2021/01/12 19:41:32;;;;;;;92.45;38.00;;;;;;;0.34;100.00;98806.03;10828791;80;21064;-79
2021/01/12 19:56:37;;;;;;;204.10;73.43;;;;;;;0.43;100.00;98801.52;10858739;80;21083;-77
2021/01/12 20:11:44;;;;;;;53.28;26.60;;;;;;;0.53;100.00;98808.62;10830113;80;21858;-75
2021/01/12 20:26:51;;;;;;;56.88;27.62;;;;;;;0.49;100.00;98802.39;10832117;80;21078;-76
2021/01/12 20:41:55;;;;;;;;;;;;;;;0.49;100.00;98799.81;10889921;80;21047;-75
2021/01/12 20:57:01;;;;;;;95.60;54.27;;;;;;;0.52;100.00;98814.73;10601618;84;20198;-76
2021/01/12 21:12:09;;;;;;;105.55;50.80;;;;;;;0.52;100.00;98811.67;10870620;80;21170;-75
2021/01/12 21:27:13;;;;;;;107.30;47.60;;;;;;;0.51;100.00;98810.50;10811028;81;21535;-77
2021/01/12 21:42:20;;;;;;;84.97;38.30;;;;;;;0.51;100.00;98821.63;10818742;82;21561;-76
2021/01/12 21:57:25;;;;;;;86.28;37.08;;;;;;;0.43;100.00;98831.20;10841983;81;21060;-76
2021/01/12 22:12:30;;;;;;;63.60;28.83;;;;;;;0.49;100.00;98830.78;10827165;81;21068;-76
2021/01/12 22:27:36;;;;;;;76.20;33.15;;;;;;;0.45;100.00;98830.63;10928169;81;21128;-78
2021/01/12 22:42:41;;;;;;;106.27;46.57;;;;;;;0.42;100.00;98842.91;10931066;81;21088;-76
2021/01/12 22:57:46;;;;;;;73.62;33.10;;;;;;;0.46;100.00;98846.48;10866615;81;21053;-77
2021/01/12 23:12:52;;;;;;;64.95;29.70;;;;;;;0.47;100.00;98870.52;10894655;79;21064;-77
2021/01/12 23:27:56;;;;;;;58.40;27.22;;;;;;;0.38;100.00;98859.06;10905794;80;21615;-78
2021/01/12 23:43:03;;;;;;;58.30;24.90;;;;;;;0.38;100.00;98891.31;10878988;80;21151;-78
2021/01/12 23:58:08;;;;;;;47.07;21.77;;;;;;;0.37;100.00;98888.84;10871103;80;21195;-78
